ENLA

Ula Platform Heliport

Norway
METAR ENLA 201420Z AUTO 25009KT 220V290 9999NDV FEW180/// SCT210/// 20/12 Q1012 W///S3
Observed Flight Rules
Jul-20 @ 14:20 UTC (14 minutes ago)
Wind Clouds
250° at 9 knots
  • Few at 18,000' AGL
  • Scattered at 21,000' AGL
Temperatures Readings
Current 20°C / 68°F
Dewpoint 12°C / 54°F
Humidity 60%
Altimeter 29.88" Hg
Pressure 1012 hPa
Elevation 4
METAR ENLA 201420Z AUTO 25009KT 220V290 9999NDV FEW180/// SCT210/// 20/12 Q1012 W///S3
Observed Flight Rules
Jul-20 @ 14:20 UTC
(14 minutes ago)
Wind
250° at 9 knots
Clouds
  • Few at 18,000' AGL
  • Scattered at 21,000' AGL
Temperature Dewpoint
20°C / 68°F 12°C / 54°F
Humidity Altimeter Pressure
60% 29.88" Hg 1012 hPa